ADDS TAF Board (Experimental) INFO Settings

IDs: Format: Expanded Condensed

KSLC - Salt Lake City Intl, UT, US

Issued at 1120 UTC 03 Mar 2015
Updated at: 1239 UTC 03 Mar 2015
Time1153Z 03/13Z 03/14Z 03/15Z 03/16Z 03/17Z 03/18Z 03/19Z 03/20Z 03/21Z 03/22Z 03/23Z 04/00Z 04/01Z
Type OBS PRVL
  [TEMP]  
PRVL PRVL PRVL PRVL PRVL PRVL PRVL PRVL PRVL PRVL PRVL PRVL
VIS 10 >6
  [6]  
5 0.75 0.75 0.75 4 4 >6 >6 >6 >6 >6 >6
CIG 30 50
  [35]  
25 4 4 4 15 15 25 25 25 25 25 25
Cover OVC BKN
  [BKN]  
BKN OVX OVX OVX OVC OVC BKN BKN BKN BKN BKN BKN
FltCat MVFR VFR
  [VFR]  
MVFR LIFR LIFR LIFR MVFR MVFR MVFR MVFR MVFR MVFR MVFR MVFR
WX -RA VCSH
  [-SHSN]  
-SN -SN BR -SN BR -SN BR -SHSN BR -SHSN BR VCSH VCSH VCSH VCSH VCSH VCSH
WDir 340 200
[200]
330 320 320 320 330 330 330 330 330 330 330 330
WSpd 3 5
  [5]  
8 11 11 11 11 11 10 10 10 10 10 10
WGst -- --
  [--]  
-- 18 18 18 -- -- -- -- -- -- -- --
R14/32
XWnd 0 -4 -0 -2 -2 -2 -1 -1 -1 -1 -1 -1 -1 -1
XGst -- 0 -- -4 -4 -4 -- -- -- -- -- -- -- --
HWnd -3 3 -8 -11 -11 -11 -11 -11 -10 -10 -10 -10 -10 -10
HGst -- 0 -- -18 -18 -18 -- -- -- -- -- -- -- --
R16/34
XWnd -1 -2 -3 -6 -6 -6 -5 -5 -4 -4 -4 -4 -4 -4
XGst -- 0 -- -10 -10 -10 -- -- -- -- -- -- -- --
HWnd -3 5 -7 -9 -9 -9 -10 -10 -9 -9 -9 -9 -9 -9
HGst -- 0 -- -15 -15 -15 -- -- -- -- -- -- -- --
R17/35
XWnd -1 -2 -4 -7 -7 -7 -5 -5 -5 -5 -5 -5 -5 -5
XGst -- 0 -- -12 -12 -12 -- -- -- -- -- -- -- --
HWnd -3 5 -7 -8 -8 -8 -10 -10 -9 -9 -9 -9 -9 -9
HGst -- 0 -- -14 -14 -14 -- -- -- -- -- -- -- --
RHB/18
XWnd 1 2 4 7 7 7 6 6 5 5 5 5 5 5
XGst -- 0 -- 12 12 12 -- -- -- -- -- -- -- --
HWnd 3 -5 7 8 8 8 10 10 9 9 9 9 9 9
HGst -- 0 -- 14 14 14 -- -- -- -- -- -- -- --

NOTE: TEMPO conditions in [brackets]. Keep in mind TEMPO conditions might be better (lower impact) than prevailing conditions.

Raw TAF
KSLC 031120Z 0312/0418 20005KT P6SM VCSH SCT010 BKN050
  TEMPO 0312/0314 6SM -SHSN BKN035
  FM031400 33008KT 5SM -SN SCT004 BKN025
  FM031500 32011G18KT 3/4SM -SN BR VV004
  FM031800 33011KT 4SM -SHSN BR BKN015 OVC035
  FM032000 33010KT P6SM VCSH BKN025 BKN050
  FM040400 35007KT P6SM SCT040 SCT060


Raw METAR
KSLC 031153Z 34003KT 10SM -RA FEW018 BKN030 OVC055 02/00 A2979 RMK AO2 SLP087 RAB31 P0000 60000 70026 T00170000 10022 20006 50006
KSLC 031053Z 00000KT 10SM FEW033 BKN050 OVC060 02/00 A2979 RMK AO2 SLP088 T00170000
KSLC 030953Z 12007KT 10SM BKN060 OVC110 01/00 A2977 RMK AO2 SLP078 T00110000

METAR Board
Radar Display
Forecast Discussion

TAF Board Legend

Potential Impact
Threat None Slight Moderate High
Visibility (sm) ≥5.1 5.1>X≥3 3>X≥1 <1
Ceiling (100 ft) ≥30.1 30.1>X≥10 10>X≥5 <5
Wind Speed (kt) <10 10≤X<20 20≤X<30 ≥30
Wind Gust (kt) <15 15≤X<25 25≤X<35 ≥35
Weather No Wx Reported VCTS,-TS,-FZRA,SN TS,FZRA +TS,+FZRA,+SN